Für alle, die die total partielle Finsternis auf dem Nortel heute verpasst haben, ist hier ein kleines, werbefreies Video.

Ein unvergesslicher Tag auf dem Nortel !!

 

(MP4 Video !!)  

 

Musik im Video :
House of the Rising Sun (live) (Montana Skies) / CC BY-NC-SA 3.0

 

 

WebCam

  
Kamera Halle
Kamera Vorfeld
Wetter EDDS

METAR

EDDS 260550Z VRB01KT CAVOK 24/19 Q1023 NOSIG =
EDDS 260500Z 2606/2706 20003KT CAVOK BECMG 2609/2611 01006KT BECMG 2619/2621 20003KT BECMG 2623/2701 33006KT


TAF

EDDS 260500Z 2606/2706 20003KT CAVOK BECMG 2609/2611 01006KT BECMG 2619/2621 20003KT BECMG 2623/2701 33006KT =


SR/SS

03:20 / 19:28 UTC
(EDSO 26-06-2019)